EmailTwitter


Observations de surface / Québec / LFRC

Régions: Québec | Canada | États-Unis | Europe | France | UK | Elsewhere
Station
Affichage
Infos & localisation pour LFRC | Aide pour décoder les METARs

Observations prises le 2017-05-26 à 01H30 UTC à CHERBOURG/MAUPER, FR (LFRC)

Température: 16.0 Celsius

Point de rosée: 12.0 Celsius

Humidité relative: 77%

Vents: Est à 15 km/h ou 8 noeuds.

Pression au niveau moyen de la mer: 101.70 kilopascals.

Observation METAR:

LFRC 260130Z AUTO 09008KT CAVOK 16/12 Q1017=